Wappingers Falls, New York
Current Conditions -  °F | °C
As of 6:53 AM on Monday 24 Nov 2014 (Local Time) from KPOU Reporting Station
Overcast Overcast  
Wind Chill: 64°   Ceiling: 2200
Heat Index: 64°   Visibility: 10mi
Dew Point: 59°   Wind: 13mph
Humidity: 84%   Direction: 170°S
Pressure: 29.64"   Gusts: 24mph
Location:  41.6°N, 73.91°W
Report Text: KPOU 241153Z 17011G21KT 140V200 10SM OVC022 18/15 A2964 RMK AO2 RAE48 SLP033 P0000 60027 70027 T01780150 10178 20072 56043
Loading
Personal Weather Stations






























Interactive Weather Map New forecast layout! Learn more

10-Day Weather Forecast

Advertisements
Track Severe Weather on mobile